Terminal Aerodrome Forecast
Issued by NWS

Home | Current Version | Previous Version | Text Only | Print | Product List | Glossary On
Versions: 1 2 3 4 5 6 7 8 9 10 11 12 13 14 15 16 17 18 19 20 21 22 23 24 25 26
072
FTUS43 KIND 302051 AAA
TAFLAF
TAF AMD
KLAF 302051Z 3021/0118 12013G18KT P6SM OVC007
      TEMPO 3021/3024 4SM -SHRA
     FM010000 16007KT P6SM VCSH OVC006
     FM010600 22006KT 2SM BR BKN006
     FM011200 34005KT 1SM BR VCSH BKN003
     FM011500 31005KT P6SM VCSH BKN015=

USA.gov is the U.S. government's official web portal to all federal, state and local government web resources and services.